Time;durP1;ratioP1;P1;durP2;ratioP2;P2;SDS_P1;SDS_P2;PMS_P1;PMS_P2;Temp;Humidity;BMP_temperature;BMP_pressure;BME280_temperature;BME280_humidity;BME280_pressure;Samples;Min_cycle;Max_cycle;Signal;HPM_P1;HPM_P2
2022/06/10 00:00:20;;;;;;;3.80;2.22;;;15.70;99.90;;;;;;5055203;28;20240;-68
2022/06/10 00:02:47;;;;;;;2.47;2.20;;;15.70;99.90;;;;;;5055262;28;20352;-69
2022/06/10 00:05:16;;;;;;;3.33;2.28;;;15.70;99.90;;;;;;5055038;28;20297;-69
2022/06/10 00:07:43;;;;;;;2.42;2.33;;;15.60;99.90;;;;;;5054871;28;20755;-69
2022/06/10 00:10:13;;;;;;;2.80;2.60;;;15.60;99.90;;;;;;5055014;28;20225;-68
2022/06/10 00:12:40;;;;;;;3.05;2.30;;;15.60;99.90;;;;;;5054552;28;20809;-68
2022/06/10 00:15:09;;;;;;;3.50;2.47;;;15.50;99.90;;;;;;5054921;28;20296;-69
2022/06/10 00:17:36;;;;;;;2.70;2.50;;;15.50;99.90;;;;;;5054850;28;20609;-69
2022/06/10 00:20:05;;;;;;;4.65;2.70;;;15.50;99.90;;;;;;5054573;28;20311;-68
2022/06/10 00:22:32;;;;;;;2.50;2.30;;;15.50;99.90;;;;;;5054602;28;20284;-69
2022/06/10 00:24:59;;;;;;;2.78;2.58;;;15.40;99.90;;;;;;5054729;28;20300;-69
2022/06/10 00:27:26;;;;;;;2.72;2.40;;;15.40;99.90;;;;;;5054952;28;20354;-68
2022/06/10 00:29:53;;;;;;;3.05;2.33;;;15.40;99.90;;;;;;5054614;28;20238;-69
2022/06/10 00:32:21;;;;;;;2.97;2.40;;;15.40;99.90;;;;;;5054133;28;20791;-69
2022/06/10 00:34:48;;;;;;;3.75;2.58;;;15.30;99.90;;;;;;5054535;28;20297;-69
2022/06/10 00:37:15;;;;;;;2.65;2.45;;;15.30;99.90;;;;;;5054610;28;20395;-68
2022/06/10 00:39:42;;;;;;;3.28;2.70;;;15.10;99.90;;;;;;5054264;28;20833;-69
2022/06/10 00:42:10;;;;;;;2.70;2.50;;;14.90;99.90;;;;;;5053706;28;20201;-69
2022/06/10 00:44:40;;;;;;;2.58;2.38;;;14.80;99.90;;;;;;5054350;28;20291;-69
2022/06/10 00:47:15;;;;;;;2.63;2.42;;;14.90;99.90;;;;;;5054010;28;20745;-69
2022/06/10 00:49:47;;;;;;;2.80;2.50;;;14.90;99.90;;;;;;5054225;28;20705;-69
2022/06/10 00:52:22;;;;;;;3.85;2.90;;;14.90;99.90;;;;;;5053783;28;20689;-69
2022/06/10 00:54:52;;;;;;;3.00;2.65;;;14.90;99.90;;;;;;5054258;28;20206;-69
2022/06/10 00:57:22;;;;;;;3.20;3.00;;;14.70;99.90;;;;;;5054079;28;20682;-69
2022/06/10 00:59:54;;;;;;;4.63;3.00;;;14.60;99.90;;;;;;5054085;28;20319;-68
2022/06/10 01:02:24;;;;;;;3.88;2.60;;;14.70;99.90;;;;;;5053932;28;20298;-69
2022/06/10 01:04:55;;;;;;;3.17;2.88;;;14.70;99.90;;;;;;5054073;28;20300;-69
2022/06/10 01:07:26;;;;;;;2.75;2.40;;;14.80;99.90;;;;;;5053989;28;20207;-69
2022/06/10 01:09:54;;;;;;;3.55;2.60;;;14.80;99.90;;;;;;5054126;28;20750;-69
2022/06/10 01:12:45;;;;;;;4.85;2.65;;;14.70;99.90;;;;;;5053415;28;20789;-69
2022/06/10 01:15:24;;;;;;;3.13;2.85;;;14.80;99.90;;;;;;5053784;28;20206;-69
2022/06/10 01:18:09;;;;;;;3.30;3.00;;;14.80;99.90;;;;;;5053879;28;20295;-69
2022/06/10 01:20:45;;;;;;;2.72;2.50;;;14.90;99.90;;;;;;5053809;28;20311;-69
2022/06/10 01:23:41;;;;;;;3.75;2.67;;;14.90;99.90;;;;;;5053444;28;20764;-69
2022/06/10 01:26:28;;;;;;;4.55;3.30;;;14.90;99.90;;;;;;5053617;28;20300;-68
2022/06/10 01:29:13;;;;;;;2.88;2.67;;;14.90;99.90;;;;;;5053597;28;20209;-68
2022/06/10 01:31:48;;;;;;;2.97;2.78;;;14.80;99.90;;;;;;5053628;28;20335;-69
2022/06/10 01:34:26;;;;;;;3.10;2.80;;;14.80;99.90;;;;;;5053483;28;20200;-69
2022/06/10 01:37:01;;;;;;;3.17;2.67;;;14.80;99.90;;;;;;5053566;28;20208;-68
2022/06/10 01:39:41;;;;;;;2.97;2.78;;;14.70;99.90;;;;;;5053576;28;20311;-69
2022/06/10 01:42:20;;;;;;;4.60;2.90;;;14.80;99.90;;;;;;5053329;28;20288;-69
2022/06/10 01:44:55;;;;;;;3.33;3.00;;;14.60;99.90;;;;;;5053517;28;20205;-68
2022/06/10 01:47:26;;;;;;;2.75;2.55;;;14.60;99.90;;;;;;5053417;28;20738;-69
2022/06/10 01:49:57;;;;;;;2.90;2.70;;;14.60;99.90;;;;;;5053723;28;20312;-69
2022/06/10 01:52:34;;;;;;;3.90;2.90;;;14.70;99.90;;;;;;5053095;28;20229;-69
2022/06/10 01:55:09;;;;;;;3.13;2.83;;;14.80;99.90;;;;;;5055655;28;20214;-69
2022/06/10 01:57:54;;;;;;;3.15;2.85;;;14.80;99.90;;;;;;5057564;28;20203;-69
2022/06/10 02:00:23;;;;;;;4.28;2.97;;;14.80;99.90;;;;;;5057701;28;20309;-69
2022/06/10 02:02:56;;;;;;;3.95;3.05;;;14.70;99.90;;;;;;5056980;28;20712;-68
2022/06/10 02:05:27;;;;;;;3.95;2.80;;;14.70;99.90;;;;;;5057408;28;20200;-69
2022/06/10 02:08:00;;;;;;;3.58;3.28;;;14.70;99.90;;;;;;5057375;28;20200;-69
2022/06/10 02:10:36;;;;;;;3.25;2.95;;;14.60;99.90;;;;;;5057056;28;20311;-69
2022/06/10 02:13:07;;;;;;;3.22;2.92;;;14.60;99.90;;;;;;5057070;28;20258;-69
2022/06/10 02:15:38;;;;;;;3.65;3.33;;;14.50;99.90;;;;;;5057233;28;20289;-68
2022/06/10 02:18:11;;;;;;;3.40;2.78;;;14.40;99.90;;;;;;5057089;28;20294;-68
2022/06/10 02:20:44;;;;;;;3.15;2.80;;;14.50;99.90;;;;;;5056817;28;20227;-69
2022/06/10 02:23:17;;;;;;;3.55;3.25;;;14.40;99.90;;;;;;5056955;28;20207;-69
2022/06/10 02:25:48;;;;;;;3.22;2.92;;;14.40;99.90;;;;;;5057075;28;20290;-69
2022/06/10 02:28:20;;;;;;;3.55;3.25;;;14.40;99.90;;;;;;5057027;28;20295;-69
2022/06/10 02:30:53;;;;;;;3.20;2.90;;;14.40;99.90;;;;;;5056992;28;20643;-69
2022/06/10 02:33:22;;;;;;;4.03;3.63;;;14.40;99.90;;;;;;5056496;28;20311;-69
2022/06/10 02:35:56;;;;;;;3.10;2.90;;;14.40;99.90;;;;;;5056562;28;20298;-69
2022/06/10 02:38:32;;;;;;;3.80;3.40;;;14.50;99.90;;;;;;5056827;28;20211;-69
2022/06/10 02:41:03;;;;;;;3.35;3.05;;;14.50;99.90;;;;;;5056739;28;20652;-69
2022/06/10 02:43:34;;;;;;;2.80;2.60;;;14.40;99.90;;;;;;5056324;28;20307;-69
2022/06/10 02:46:06;;;;;;;3.40;3.10;;;14.40;99.90;;;;;;5056709;28;20286;-69
2022/06/10 02:48:42;;;;;;;3.65;3.28;;;14.30;99.90;;;;;;5056437;28;20740;-69
2022/06/10 02:51:08;;;;;;;5.35;3.20;;;14.30;99.90;;;;;;5056650;28;20214;-68
2022/06/10 02:53:36;;;;;;;3.53;3.05;;;14.30;99.90;;;;;;5056120;28;20231;-69
2022/06/10 02:56:14;;;;;;;3.78;3.20;;;14.30;99.90;;;;;;5056410;28;20293;-69
2022/06/10 03:01:30;;;;;;;3.15;2.92;;;14.20;99.90;;;;;;5056561;28;20185;-69
2022/06/10 03:04:14;;;;;;;3.00;2.80;;;14.20;99.90;;;;;;5056232;28;20310;-69
2022/06/10 03:06:51;;;;;;;5.07;3.22;;;14.20;99.90;;;;;;5055674;28;20299;-69
2022/06/10 03:09:22;;;;;;;3.40;3.10;;;14.20;99.90;;;;;;5056008;28;20318;-69
2022/06/10 03:12:01;;;;;;;7.10;3.95;;;14.20;99.90;;;;;;5056281;28;20298;-69
2022/06/10 03:14:43;;;;;;;4.22;3.45;;;14.00;99.90;;;;;;5055979;28;20298;-69
2022/06/10 03:17:19;;;;;;;4.05;3.30;;;13.80;99.90;;;;;;5056100;28;20207;-69
2022/06/10 03:20:01;;;;;;;3.75;3.33;;;13.70;99.90;;;;;;5056064;28;20630;-69
2022/06/10 03:22:54;;;;;;;3.35;3.00;;;13.70;99.90;;;;;;5055789;28;20207;-69
2022/06/10 03:25:24;;;;;;;3.90;3.47;;;13.80;99.90;;;;;;5055691;28;20290;-68
2022/06/10 03:28:00;;;;;;;3.50;3.20;;;13.80;99.90;;;;;;5056055;28;20204;-68
2022/06/10 03:30:32;;;;;;;3.38;3.10;;;13.90;99.90;;;;;;5055852;28;20229;-68
2022/06/10 03:33:07;;;;;;;3.03;2.70;;;13.70;99.90;;;;;;5055477;28;20310;-69
2022/06/10 03:35:38;;;;;;;3.08;2.70;;;13.70;99.90;;;;;;5055659;28;20573;-68
2022/06/10 03:38:07;;;;;;;3.70;3.20;;;13.80;99.90;;;;;;5055456;28;20674;-68
2022/06/10 03:40:35;;;;;;;4.93;3.58;;;13.80;99.90;;;;;;5055633;28;20333;-68
2022/06/10 03:43:07;;;;;;;3.65;3.30;;;13.70;99.90;;;;;;5055328;28;20199;-68
2022/06/10 03:45:39;;;;;;;5.28;3.58;;;13.80;99.90;;;;;;5055365;28;20295;-68
2022/06/10 03:48:07;;;;;;;4.35;3.05;;;13.80;99.90;;;;;;5055903;28;20294;-68
2022/06/10 03:50:38;;;;;;;3.60;3.28;;;13.80;99.90;;;;;;5056084;28;20315;-68
2022/06/10 03:53:06;;;;;;;3.13;2.92;;;13.70;99.90;;;;;;5054890;28;20777;-69
2022/06/10 03:55:33;;;;;;;4.05;3.28;;;13.70;99.90;;;;;;5055306;28;20290;-69
2022/06/10 03:57:59;;;;;;;4.53;3.35;;;13.70;99.90;;;;;;5055146;28;20689;-68
2022/06/10 04:00:29;;;;;;;4.32;3.35;;;13.50;99.90;;;;;;5054987;28;20309;-69
2022/06/10 04:02:56;;;;;;;3.80;2.95;;;13.40;99.90;;;;;;5054938;28;20282;-69
2022/06/10 04:05:23;;;;;;;3.95;3.25;;;13.40;99.90;;;;;;5054920;28;20738;-69
2022/06/10 04:07:51;;;;;;;4.40;3.72;;;13.40;99.90;;;;;;5054883;28;20740;-69
2022/06/10 04:10:22;;;;;;;4.25;3.47;;;13.40;99.90;;;;;;5054753;28;20757;-69
2022/06/10 04:12:49;;;;;;;4.72;3.50;;;13.30;99.90;;;;;;5054818;28;20314;-69
2022/06/10 04:15:16;;;;;;;4.55;3.50;;;13.30;99.90;;;;;;5054889;28;20298;-69
2022/06/10 04:17:44;;;;;;;4.32;3.63;;;13.40;99.90;;;;;;5054003;28;20294;-69
2022/06/10 04:20:16;;;;;;;4.43;3.80;;;13.40;99.90;;;;;;5054771;28;20771;-69
2022/06/10 04:22:43;;;;;;;4.20;3.80;;;13.60;99.90;;;;;;5054590;28;20287;-69
2022/06/10 04:25:12;;;;;;;3.85;3.00;;;13.70;99.90;;;;;;5054883;28;20294;-69
2022/06/10 04:27:39;;;;;;;3.92;3.50;;;13.80;99.90;;;;;;5054678;28;20302;-69
2022/06/10 04:30:08;;;;;;;4.45;3.90;;;13.90;99.90;;;;;;5054567;28;20781;-69
2022/06/10 04:32:35;;;;;;;4.00;3.70;;;13.90;99.90;;;;;;5054124;28;20794;-69
2022/06/10 04:35:01;;;;;;;4.80;3.75;;;13.90;99.90;;;;;;5054400;28;20291;-68
2022/06/10 04:37:28;;;;;;;3.90;3.60;;;13.90;99.90;;;;;;5054431;28;20213;-69
2022/06/10 04:39:55;;;;;;;4.38;3.95;;;13.90;99.90;;;;;;5054145;28;20314;-69
2022/06/10 04:42:23;;;;;;;4.07;3.55;;;13.90;99.90;;;;;;5054277;28;20294;-69
2022/06/10 04:44:50;;;;;;;4.28;3.88;;;13.90;99.90;;;;;;5054419;28;20290;-69
2022/06/10 04:47:17;;;;;;;4.68;3.95;;;14.00;99.90;;;;;;5054365;28;20307;-69
2022/06/10 04:49:44;;;;;;;4.70;4.22;;;14.00;99.90;;;;;;5054124;28;20311;-69
2022/06/10 04:52:11;;;;;;;5.43;4.93;;;14.10;99.90;;;;;;5054089;28;20318;-68
2022/06/10 04:54:38;;;;;;;4.20;3.80;;;14.10;99.90;;;;;;5054237;28;20295;-68
2022/06/10 04:57:06;;;;;;;4.53;3.92;;;14.00;99.90;;;;;;5054077;28;20296;-69
2022/06/10 04:59:34;;;;;;;4.85;3.90;;;14.00;99.90;;;;;;5054111;28;20283;-69
2022/06/10 05:02:01;;;;;;;5.10;4.00;;;14.10;99.90;;;;;;5054056;28;20211;-69
2022/06/10 05:04:28;;;;;;;4.85;4.38;;;14.10;99.90;;;;;;5053927;28;20302;-69
2022/06/10 05:06:55;;;;;;;6.22;4.53;;;14.10;99.90;;;;;;5054025;28;20207;-69
2022/06/10 05:09:22;;;;;;;5.63;4.15;;;14.10;99.90;;;;;;5053842;28;20585;-69
2022/06/10 05:11:49;;;;;;;5.82;4.40;;;14.10;99.90;;;;;;5053679;28;20301;-69
2022/06/10 05:14:16;;;;;;;5.35;4.10;;;14.10;99.90;;;;;;5053454;28;20314;-69
2022/06/10 05:16:44;;;;;;;5.95;4.60;;;14.00;99.90;;;;;;5053860;28;20294;-69
2022/06/10 05:19:11;;;;;;;4.72;4.30;;;13.90;99.90;;;;;;5053543;28;20610;-68
2022/06/10 05:21:38;;;;;;;5.30;4.70;;;13.80;99.90;;;;;;5053539;28;20214;-69
2022/06/10 05:24:05;;;;;;;5.97;4.88;;;13.80;99.90;;;;;;5053329;28;20295;-69
2022/06/10 05:26:33;;;;;;;7.05;4.88;;;13.90;99.90;;;;;;5053435;28;20292;-68
2022/06/10 05:29:00;;;;;;;6.68;4.95;;;14.10;99.90;;;;;;5053387;28;20291;-69
2022/06/10 05:31:27;;;;;;;4.78;4.38;;;14.10;99.90;;;;;;5053727;28;20287;-68
2022/06/10 05:36:40;;;;;;;4.80;4.40;;;14.30;99.90;;;;;;5053648;28;20203;-69
2022/06/10 05:39:07;;;;;;;5.47;4.88;;;14.30;99.90;;;;;;5053442;28;20228;-69
2022/06/10 05:44:18;;;;;;;7.57;5.45;;;14.20;99.90;;;;;;5053184;28;20198;-69
2022/06/10 05:46:46;;;;;;;5.43;4.93;;;14.20;99.90;;;;;;5053412;28;20254;-69
2022/06/10 05:49:14;;;;;;;5.78;5.18;;;14.30;99.90;;;;;;5053113;28;20316;-69
2022/06/10 05:51:41;;;;;;;6.28;4.57;;;14.30;99.90;;;;;;5053441;28;20294;-69
2022/06/10 05:54:08;;;;;;;6.18;5.55;;;14.30;99.90;;;;;;5053224;28;20315;-69
2022/06/10 05:56:34;;;;;;;7.05;5.20;;;14.30;99.90;;;;;;5053257;28;20666;-69
2022/06/10 05:59:01;;;;;;;5.30;4.90;;;14.40;99.90;;;;;;5053286;28;20316;-69
2022/06/10 06:01:28;;;;;;;5.60;4.97;;;14.50;99.90;;;;;;5053385;28;20627;-69
2022/06/10 06:03:55;;;;;;;5.97;5.45;;;14.60;99.90;;;;;;5052905;28;20296;-68
2022/06/10 06:06:23;;;;;;;5.88;5.30;;;14.70;99.90;;;;;;5053917;28;20300;-69
2022/06/10 06:08:50;;;;;;;8.18;5.55;;;14.70;99.90;;;;;;5053194;28;20202;-68
2022/06/10 06:11:18;;;;;;;7.40;5.78;;;14.80;99.90;;;;;;5053327;28;20208;-68
2022/06/10 06:13:45;;;;;;;6.70;4.95;;;14.90;99.90;;;;;;5052782;28;20232;-68
2022/06/10 06:16:14;;;;;;;8.05;5.60;;;15.00;99.90;;;;;;5053154;28;20339;-69
2022/06/10 06:18:42;;;;;;;6.05;5.45;;;15.10;99.90;;;;;;5053214;28;20293;-69
2022/06/10 06:21:09;;;;;;;7.60;5.50;;;15.10;99.90;;;;;;5053209;28;20245;-68
2022/06/10 06:23:38;;;;;;;7.88;4.78;;;15.20;99.90;;;;;;5053132;28;20208;-69
2022/06/10 06:26:05;;;;;;;5.57;4.97;;;15.30;99.90;;;;;;5053105;28;20297;-69
2022/06/10 06:28:31;;;;;;;6.25;5.65;;;15.40;99.90;;;;;;5053148;28;20292;-69
2022/06/10 06:30:58;;;;;;;6.13;5.63;;;15.40;99.90;;;;;;5053235;28;20322;-69
2022/06/10 06:33:25;;;;;;;6.68;5.82;;;15.40;99.90;;;;;;5052907;28;20312;-69
2022/06/10 06:35:54;;;;;;;6.18;5.43;;;15.40;99.90;;;;;;5053078;28;20300;-69
2022/06/10 06:38:22;;;;;;;8.15;5.55;;;15.50;99.90;;;;;;5053184;28;20232;-69
2022/06/10 06:40:50;;;;;;;6.55;5.95;;;15.50;99.90;;;;;;5054194;28;20294;-69
2022/06/10 06:43:17;;;;;;;7.30;5.57;;;15.60;99.90;;;;;;5056415;28;20545;-69
2022/06/10 06:45:44;;;;;;;6.00;5.40;;;15.70;99.90;;;;;;5056454;28;20297;-69
2022/06/10 06:48:12;;;;;;;5.75;5.25;;;16.00;99.90;;;;;;5056448;28;20751;-69
2022/06/10 06:50:43;;;;;;;5.68;4.93;;;16.10;99.90;;;;;;5056284;28;20780;-69
2022/06/10 06:53:10;;;;;;;5.72;4.97;;;16.20;99.90;;;;;;5056099;28;20320;-69
2022/06/10 06:55:38;;;;;;;7.03;5.15;;;16.20;99.90;;;;;;5056437;28;20202;-69
2022/06/10 06:58:09;;;;;;;6.95;5.10;;;16.40;99.90;;;;;;5056174;28;20209;-69
2022/06/10 07:00:36;;;;;;;6.75;4.57;;;16.70;99.90;;;;;;5056457;28;20231;-68
2022/06/10 07:03:04;;;;;;;4.85;4.43;;;16.90;99.90;;;;;;5056064;28;20257;-69
2022/06/10 07:05:31;;;;;;;5.20;4.70;;;17.00;99.90;;;;;;5056296;28;20290;-69
2022/06/10 07:07:59;;;;;;;7.80;4.38;;;17.10;99.90;;;;;;5056172;28;20208;-69
2022/06/10 07:10:26;;;;;;;7.45;4.68;;;17.20;99.90;;;;;;5056071;28;20223;-69
2022/06/10 07:12:53;;;;;;;6.18;5.57;;;17.30;99.90;;;;;;5055940;28;20607;-69
2022/06/10 07:15:22;;;;;;;5.22;4.72;;;17.50;99.90;;;;;;5056423;28;20290;-69
2022/06/10 07:17:49;;;;;;;5.25;4.80;;;17.70;99.90;;;;;;5055932;28;20752;-69
2022/06/10 07:20:22;;;;;;;4.35;4.05;;;17.90;99.90;;;;;;5055986;28;20318;-68
2022/06/10 07:22:49;;;;;;;4.60;4.20;;;18.20;99.90;;;;;;5055811;28;20210;-68
2022/06/10 07:25:17;;;;;;;6.32;4.53;;;18.20;99.90;;;;;;5055713;28;20298;-69
2022/06/10 07:27:44;;;;;;;6.25;5.65;;;18.10;99.90;;;;;;5055738;28;20203;-69
2022/06/10 07:30:13;;;;;;;5.03;4.07;;;18.20;99.90;;;;;;5055841;28;20314;-68
2022/06/10 07:32:41;;;;;;;5.10;4.65;;;18.10;99.90;;;;;;5055541;28;20206;-68
2022/06/10 07:35:09;;;;;;;6.65;3.97;;;18.00;99.90;;;;;;5055715;28;20290;-68
2022/06/10 07:37:36;;;;;;;5.28;4.13;;;17.90;99.90;;;;;;5055440;28;20207;-68
2022/06/10 07:40:03;;;;;;;8.43;4.53;;;17.70;99.90;;;;;;5055355;28;20785;-68
2022/06/10 07:42:29;;;;;;;7.68;4.07;;;17.80;99.90;;;;;;5055387;28;20298;-68
2022/06/10 07:44:56;;;;;;;5.87;3.87;;;17.90;99.90;;;;;;5055434;28;20290;-68
2022/06/10 07:47:23;;;;;;;4.45;4.13;;;18.10;99.90;;;;;;5055496;28;20478;-68
2022/06/10 07:49:51;;;;;;;4.40;3.90;;;18.50;99.90;;;;;;5055324;28;20762;-68
2022/06/10 07:52:18;;;;;;;4.60;3.70;;;19.10;99.90;;;;;;5054807;28;20511;-69
2022/06/10 07:54:45;;;;;;;3.60;3.27;;;19.80;99.90;;;;;;5055377;28;20481;-68
2022/06/10 07:57:12;;;;;;;4.33;3.60;;;20.20;99.90;;;;;;5055354;28;20537;-69
2022/06/10 07:59:42;;;;;;;3.60;3.30;;;20.70;99.40;;;;;;5055309;28;20472;-68
2022/06/10 08:02:09;;;;;;;5.80;3.80;;;21.40;97.80;;;;;;5055137;28;20920;-69
2022/06/10 08:04:36;;;;;;;4.27;3.50;;;21.90;96.40;;;;;;5055124;28;20533;-69
2022/06/10 08:07:04;;;;;;;3.80;3.50;;;22.20;95.50;;;;;;5055114;28;20525;-69
2022/06/10 08:09:31;;;;;;;3.67;3.37;;;22.00;94.60;;;;;;5055005;28;20556;-68
2022/06/10 08:11:58;;;;;;;4.30;3.90;;;21.80;94.60;;;;;;5054957;28;20449;-69
2022/06/10 08:14:25;;;;;;;3.90;3.60;;;21.50;95.50;;;;;;5054857;28;20563;-69
2022/06/10 08:16:53;;;;;;;4.13;3.77;;;21.20;95.70;;;;;;5054886;28;20923;-68
2022/06/10 08:19:20;;;;;;;4.03;3.70;;;20.90;96.40;;;;;;5054628;28;20564;-68
2022/06/10 08:24:33;;;;;;;5.90;3.53;;;20.70;96.50;;;;;;5055184;28;20960;-69
2022/06/10 08:26:59;;;;;;;4.27;3.87;;;20.80;96.80;;;;;;5054681;28;20608;-68
2022/06/10 08:29:27;;;;;;;5.37;3.50;;;21.00;96.00;;;;;;5054685;28;20560;-69
2022/06/10 08:31:54;;;;;;;3.83;3.53;;;21.40;95.80;;;;;;5054700;28;20441;-69
2022/06/10 08:34:21;;;;;;;3.60;3.30;;;21.60;94.40;;;;;;5054594;28;20592;-69
2022/06/10 08:36:48;;;;;;;4.70;3.90;;;21.80;95.80;;;;;;5054614;28;20438;-69
2022/06/10 08:39:15;;;;;;;3.93;3.53;;;22.30;94.00;;;;;;5054498;28;20466;-69
2022/06/10 08:42:09;;;;;;;4.17;3.17;;;22.90;93.90;;;;;;5054582;28;20543;-69
2022/06/10 08:44:41;;;;;;;4.40;4.00;;;23.60;92.90;;;;;;5054277;28;20524;-69
2022/06/10 08:47:37;;;;;;;3.00;2.80;;;24.00;90.90;;;;;;5054305;28;20444;-69
2022/06/10 08:50:35;;;;;;;3.13;2.83;;;25.30;90.30;;;;;;5054198;28;20509;-69
2022/06/10 08:53:16;;;;;;;3.40;3.10;;;26.30;81.60;;;;;;5051340;28;20547;-70
2022/06/10 08:55:50;;;;;;;3.20;2.80;;;27.20;78.50;;;;;;5054123;28;20912;-69
2022/06/10 08:58:24;;;;;;;4.00;3.10;;;28.60;74.30;;;;;;5054255;28;20837;-69
2022/06/10 09:00:56;;;;;;;3.43;3.13;;;30.00;68.80;;;;;;5054109;28;20470;-70
2022/06/10 09:03:30;;;;;;;4.40;2.60;;;32.00;61.00;;;;;;5053323;28;20529;-69
2022/06/10 09:06:00;;;;;;;2.57;2.37;;;33.30;53.90;;;;;;5054121;28;20528;-70
2022/06/10 09:08:31;;;;;;;3.13;2.77;;;34.60;46.60;;;;;;5053898;28;20537;-69
2022/06/10 09:11:07;;;;;;;4.03;2.97;;;33.90;43.20;;;;;;5053943;28;21013;-69
2022/06/10 09:13:39;;;;;;;3.43;3.17;;;32.60;44.10;;;;;;5053485;28;20484;-69
2022/06/10 09:16:12;;;;;;;4.10;2.90;;;32.10;45.20;;;;;;5053913;28;20503;-69
2022/06/10 09:18:54;;;;;;;3.83;2.87;;;32.80;44.90;;;;;;5053905;28;20524;-70
2022/06/10 09:21:26;;;;;;;2.53;2.33;;;33.70;44.50;;;;;;5053947;28;20560;-70
2022/06/10 09:23:57;;;;;;;3.10;2.60;;;33.40;41.40;;;;;;5053624;28;20442;-69
2022/06/10 09:26:36;;;;;;;3.53;2.90;;;32.80;41.80;;;;;;5053756;28;20446;-69
2022/06/10 09:29:04;;;;;;;3.13;2.83;;;31.40;43.50;;;;;;5053651;28;20552;-69
2022/06/10 09:31:39;;;;;;;2.67;2.47;;;30.20;46.10;;;;;;5053406;28;20540;-69
2022/06/10 09:34:19;;;;;;;3.20;2.40;;;30.60;45.30;;;;;;5053170;28;20478;-69
2022/06/10 09:36:52;;;;;;;2.57;2.37;;;30.80;44.60;;;;;;5054260;28;20529;-69
2022/06/10 09:42:31;;;;;;;3.37;2.90;;;30.40;45.20;;;;;;5053245;28;20900;-69
2022/06/10 09:45:09;;;;;;;3.47;2.70;;;29.80;45.60;;;;;;5053555;28;20442;-69
2022/06/10 09:47:50;;;;;;;3.17;2.43;;;30.90;44.40;;;;;;5053527;28;20778;-69
2022/06/10 09:50:27;;;;;;;3.63;2.80;;;30.80;43.40;;;;;;5053187;28;20473;-69
2022/06/10 09:53:09;;;;;;;2.93;2.43;;;31.90;43.30;;;;;;5053126;28;20453;-69
2022/06/10 09:55:54;;;;;;;3.27;2.60;;;32.40;42.30;;;;;;5053553;28;20986;-70
2022/06/10 09:59:03;;;;;;;3.67;2.70;;;31.80;41.20;;;;;;5053423;28;20529;-69
2022/06/10 10:01:39;;;;;;;2.90;2.57;;;31.70;42.60;;;;;;5045931;28;20872;-69
2022/06/10 10:04:36;;;;;;;2.70;2.50;;;31.70;42.20;;;;;;5053046;28;20429;-69
2022/06/10 10:07:10;;;;;;;3.03;2.83;;;32.80;43.70;;;;;;5053396;28;20842;-70
2022/06/10 10:09:47;;;;;;;2.77;2.57;;;33.40;41.60;;;;;;5053226;28;20465;-70
2022/06/10 10:12:24;;;;;;;2.73;2.53;;;33.10;39.20;;;;;;5052932;28;20534;-70
2022/06/10 10:15:02;;;;;;;3.33;2.80;;;32.40;40.30;;;;;;5053476;28;20568;-69
2022/06/10 10:17:51;;;;;;;4.20;2.83;;;32.30;41.60;;;;;;5057212;28;20991;-69
2022/06/10 10:20:26;;;;;;;2.90;2.70;;;31.50;41.70;;;;;;5047088;28;20568;-69
2022/06/10 10:23:09;;;;;;;4.17;2.80;;;30.70;43.10;;;;;;5056723;28;20453;-69
2022/06/10 10:25:36;;;;;;;2.70;2.50;;;30.30;45.60;;;;;;5057160;28;20531;-69
2022/06/10 10:28:07;;;;;;;3.70;3.40;;;29.10;45.40;;;;;;5056930;28;20452;-69
2022/06/10 10:30:40;;;;;;;3.27;2.90;;;27.80;48.30;;;;;;5057028;28;20548;-69
2022/06/10 10:33:12;;;;;;;3.40;2.97;;;26.70;50.00;;;;;;5056851;28;20529;-69
2022/06/10 10:35:42;;;;;;;6.37;3.00;;;25.90;52.10;;;;;;5056828;28;20500;-69
2022/06/10 10:38:14;;;;;;;2.80;2.60;;;25.70;53.20;;;;;;5056886;28;20544;-69
2022/06/10 10:40:43;;;;;;;3.30;2.50;;;25.50;53.90;;;;;;5056770;28;20465;-69
2022/06/10 10:43:15;;;;;;;3.27;2.97;;;25.40;56.80;;;;;;5056330;28;20995;-70
2022/06/10 10:45:57;;;;;;;3.33;3.10;;;25.50;56.40;;;;;;5056772;28;20937;-69
2022/06/10 10:48:28;;;;;;;3.73;2.80;;;25.80;56.40;;;;;;5056691;28;20528;-69
2022/06/10 10:50:59;;;;;;;3.27;2.90;;;25.90;57.70;;;;;;5056360;28;20501;-69
2022/06/10 10:53:31;;;;;;;3.30;3.00;;;25.90;56.40;;;;;;5056080;28;21016;-69
2022/06/10 10:56:01;;;;;;;3.50;3.30;;;25.50;54.70;;;;;;5056521;28;20910;-69
2022/06/10 10:58:32;;;;;;;4.97;4.20;;;24.90;54.70;;;;;;5056506;28;20527;-69
2022/06/10 11:01:02;;;;;;;3.73;2.77;;;24.30;56.90;;;;;;5056162;28;21056;-69
2022/06/10 11:03:33;;;;;;;3.97;3.30;;;23.80;60.10;;;;;;5056050;28;20478;-69
2022/06/10 11:06:02;;;;;;;4.87;3.13;;;23.60;58.20;;;;;;5056113;28;21011;-69
2022/06/10 11:08:32;;;;;;;5.20;2.80;;;23.80;59.90;;;;;;5056301;28;20525;-69
2022/06/10 11:11:07;;;;;;;3.20;2.90;;;24.00;59.60;;;;;;5055985;28;20474;-69
2022/06/10 11:13:44;;;;;;;2.90;2.70;;;24.00;58.80;;;;;;5055910;28;20452;-69
2022/06/10 11:16:44;;;;;;;4.93;3.10;;;24.10;64.10;;;;;;5056169;28;20822;-69
2022/06/10 11:19:26;;;;;;;5.10;4.67;;;24.00;65.30;;;;;;5056068;28;20547;-69
2022/06/10 11:21:57;;;;;;;3.47;3.07;;;24.10;65.50;;;;;;5056147;28;20440;-69
2022/06/10 11:24:28;;;;;;;4.17;3.13;;;24.30;62.50;;;;;;5055796;28;20436;-69
2022/06/10 11:26:58;;;;;;;3.37;3.07;;;24.30;58.10;;;;;;5055972;28;20536;-69
2022/06/10 11:29:26;;;;;;;3.47;2.53;;;24.30;58.20;;;;;;5056456;28;20498;-69
2022/06/10 11:31:56;;;;;;;3.30;3.00;;;24.30;58.20;;;;;;5055910;28;20851;-69
2022/06/10 11:34:35;;;;;;;3.23;2.93;;;24.30;58.60;;;;;;5055588;28;20481;-69
2022/06/10 11:37:21;;;;;;;3.27;2.97;;;24.70;58.10;;;;;;5055665;28;20999;-69
2022/06/10 11:39:59;;;;;;;2.93;2.70;;;24.90;57.60;;;;;;5055425;28;20974;-69
2022/06/10 11:42:31;;;;;;;2.80;2.60;;;25.00;57.10;;;;;;5055523;28;20450;-69
2022/06/10 11:45:07;;;;;;;3.00;2.80;;;25.00;57.10;;;;;;5055710;28;20917;-69
2022/06/10 11:47:40;;;;;;;3.43;3.13;;;24.90;55.50;;;;;;5055526;28;20506;-69
2022/06/10 11:50:16;;;;;;;4.97;3.20;;;24.80;57.00;;;;;;5055246;28;21023;-69
2022/06/10 11:52:49;;;;;;;3.77;2.70;;;24.60;56.60;;;;;;5054959;28;20465;-69
2022/06/10 11:55:20;;;;;;;4.53;3.27;;;24.80;56.20;;;;;;5055318;28;20571;-69
2022/06/10 12:00:42;;;;;;;4.47;3.53;;;25.40;57.80;;;;;;5055419;28;20576;-69
2022/06/10 12:03:16;;;;;;;2.93;2.70;;;25.50;57.20;;;;;;5055297;28;20445;-69
2022/06/10 12:05:53;;;;;;;3.33;2.57;;;25.50;56.40;;;;;;5055221;28;20438;-69
2022/06/10 12:08:33;;;;;;;3.00;2.60;;;25.60;55.70;;;;;;5055139;28;20537;-69
2022/06/10 12:11:06;;;;;;;3.03;2.83;;;25.70;55.00;;;;;;5055191;28;20465;-69
2022/06/10 12:13:38;;;;;;;2.93;2.73;;;25.60;56.40;;;;;;5054827;28;20533;-69
2022/06/10 12:16:07;;;;;;;2.77;2.60;;;25.70;55.90;;;;;;5055006;28;20824;-69
2022/06/10 12:18:41;;;;;;;3.03;2.43;;;25.80;56.10;;;;;;5054910;28;20449;-69
2022/06/10 12:21:17;;;;;;;2.60;2.40;;;26.00;57.40;;;;;;5054947;28;20551;-69
2022/06/10 12:23:47;;;;;;;3.33;2.57;;;26.20;55.00;;;;;;5054745;28;20536;-69
2022/06/10 12:26:28;;;;;;;4.53;2.43;;;26.40;54.70;;;;;;5054821;28;20442;-69
2022/06/10 12:29:01;;;;;;;2.90;2.60;;;26.30;53.40;;;;;;5054736;28;20541;-69
2022/06/10 12:31:45;;;;;;;2.90;2.70;;;26.40;54.80;;;;;;5055477;28;20793;-69
2022/06/10 12:34:23;;;;;;;3.37;3.13;;;26.50;54.80;;;;;;5054366;28;20924;-69
2022/06/10 12:36:56;;;;;;;3.33;2.43;;;26.50;53.70;;;;;;5054557;28;20434;-69
2022/06/10 12:39:27;;;;;;;3.33;3.07;;;26.40;53.20;;;;;;5053776;28;20859;-69
2022/06/10 12:41:58;;;;;;;2.97;2.50;;;26.50;54.80;;;;;;5054425;28;20998;-69
2022/06/10 12:44:28;;;;;;;3.10;2.20;;;26.40;53.60;;;;;;5054613;28;20444;-69
2022/06/10 12:47:00;;;;;;;2.87;2.60;;;26.30;54.10;;;;;;5054413;28;20442;-69
2022/06/10 12:49:30;;;;;;;2.70;2.50;;;26.10;53.10;;;;;;5054357;28;20504;-69
2022/06/10 12:52:27;;;;;;;3.20;2.50;;;26.20;52.50;;;;;;5054040;28;20958;-69
2022/06/10 12:55:00;;;;;;;2.57;2.37;;;26.20;53.70;;;;;;5054507;28;20564;-69
2022/06/10 12:57:40;;;;;;;2.50;2.40;;;26.10;52.90;;;;;;5054423;28;20537;-69
2022/06/10 13:00:38;;;;;;;5.00;2.80;;;26.10;55.00;;;;;;5054213;28;20998;-69
2022/06/10 13:03:33;;;;;;;2.50;2.30;;;26.10;55.30;;;;;;5049257;28;20453;-69
2022/06/10 13:06:22;;;;;;;2.10;2.00;;;26.30;53.80;;;;;;5053988;28;20524;-69
2022/06/10 13:08:54;;;;;;;2.83;2.60;;;26.50;54.30;;;;;;5054024;28;20521;-69
2022/06/10 13:11:51;;;;;;;2.70;2.50;;;26.60;55.00;;;;;;5053817;28;20426;-69
2022/06/10 13:14:36;;;;;;;2.63;2.40;;;26.50;54.10;;;;;;5054125;28;20445;-69
2022/06/10 13:17:17;;;;;;;2.77;2.07;;;26.40;54.40;;;;;;5053031;28;20472;-69
2022/06/10 13:20:15;;;;;;;2.73;2.53;;;26.30;54.20;;;;;;5053573;28;21036;-69
2022/06/10 13:22:42;;;;;;;3.90;2.70;;;26.10;54.50;;;;;;5053655;28;20536;-69
2022/06/10 13:25:28;;;;;;;2.47;2.23;;;25.80;53.60;;;;;;5053790;28;20884;-69
2022/06/10 13:27:55;;;;;;;2.97;2.77;;;25.60;54.30;;;;;;5053775;28;20453;-69
2022/06/10 13:30:28;;;;;;;2.17;2.07;;;25.50;55.70;;;;;;5053943;28;20866;-69